Time;durP1;ratioP1;P1;durP2;ratioP2;P2;SDS_P1;SDS_P2;PMS_P1;PMS_P2;Temp;Humidity;BMP_temperature;BMP_pressure;BME280_temperature;BME280_humidity;BME280_pressure;Samples;Min_cycle;Max_cycle;Signal;HPM_P1;HPM_P2
2022/01/18 00:01:54;;;;;;;7.70;2.00;;;;;;;1.66;95.23;101151.13;5072378;28;20045;-72
2022/01/18 00:04:48;;;;;;;5.90;1.70;;;;;;;1.66;96.24;101159.88;5071984;28;20412;-73
2022/01/18 00:07:16;;;;;;;7.05;1.98;;;;;;;1.62;96.65;101171.31;5072613;28;20040;-72
2022/01/18 00:09:45;;;;;;;5.55;1.83;;;;;;;1.55;96.84;101174.91;5072038;28;20038;-71
2022/01/18 00:12:32;;;;;;;4.50;2.00;;;;;;;1.49;97.69;101179.31;5072550;28;20079;-73
2022/01/18 00:17:53;;;;;;;6.45;1.70;;;;;;;1.49;97.33;101180.19;5071852;28;20040;-72
2022/01/18 00:20:32;;;;;;;6.30;2.08;;;;;;;1.40;97.83;101183.75;5075519;28;20048;-72
2022/01/18 00:23:00;;;;;;;9.77;2.25;;;;;;;1.39;98.35;101189.03;5075799;28;20481;-72
2022/01/18 00:25:29;;;;;;;4.60;1.80;;;;;;;1.51;96.75;101178.41;5075823;28;20051;-72
2022/01/18 00:27:58;;;;;;;7.70;2.10;;;;;;;1.44;97.79;101197.75;5076075;28;20050;-72
2022/01/18 00:30:49;;;;;;;7.65;1.83;;;;;;;1.51;97.31;101190.69;5075593;28;20056;-72
2022/01/18 00:33:21;;;;;;;5.60;1.73;;;;;;;1.50;96.85;101213.50;5075490;28;20045;-72
2022/01/18 00:35:57;;;;;;;5.30;1.70;;;;;;;1.55;96.23;101211.72;5057771;28;20048;-72
2022/01/18 00:38:31;;;;;;;12.00;2.28;;;;;;;1.58;96.54;101229.22;5075496;28;20040;-71
2022/01/18 00:41:00;;;;;;;6.38;1.83;;;;;;;1.45;97.48;101233.69;5075784;28;20079;-71
2022/01/18 00:43:28;;;;;;;10.98;2.13;;;;;;;1.30;99.36;101231.16;5075650;28;20048;-72
2022/01/18 00:45:57;;;;;;;7.75;1.85;;;;;;;1.28;99.70;101236.44;5075083;28;20048;-71
2022/01/18 00:48:26;;;;;;;5.55;2.10;;;;;;;1.16;100.00;101239.16;5075518;28;20044;-72
2022/01/18 00:50:56;;;;;;;9.70;1.92;;;;;;;1.11;100.00;101236.53;5075213;28;20068;-71
2022/01/18 00:53:26;;;;;;;5.50;1.85;;;;;;;1.10;100.00;101250.56;5057737;28;20491;-71
2022/01/18 00:56:07;;;;;;;8.65;2.45;;;;;;;1.06;100.00;101248.84;5057166;28;20105;-72
2022/01/18 00:58:35;;;;;;;7.20;2.15;;;;;;;1.05;100.00;101248.81;5057124;28;20059;-72
2022/01/18 01:01:06;;;;;;;6.18;2.08;;;;;;;0.99;100.00;101244.50;5075273;28;20083;-72
2022/01/18 01:03:37;;;;;;;10.07;2.25;;;;;;;0.99;100.00;101255.00;5074939;28;20064;-76
2022/01/18 01:06:07;;;;;;;7.78;2.42;;;;;;;0.93;100.00;101251.53;5075139;28;20047;-72
2022/01/18 01:08:36;;;;;;;5.25;1.90;;;;;;;0.91;100.00;101254.16;5074988;28;20068;-75
2022/01/18 01:11:07;;;;;;;6.72;2.42;;;;;;;0.93;100.00;101256.78;5074761;28;20045;-71
2022/01/18 01:13:37;;;;;;;7.88;2.20;;;;;;;0.87;100.00;101257.69;5074944;28;20449;-78
2022/01/18 01:16:20;;;;;;;6.32;2.10;;;;;;;0.79;100.00;101257.72;5075083;28;20052;-71
2022/01/18 01:19:06;;;;;;;6.30;1.98;;;;;;;0.81;100.00;101257.72;5074756;28;20057;-70
2022/01/18 01:33:14;;;;;;;9.45;2.28;;;;;;;0.65;100.00;101263.91;5074567;28;20071;-73
2022/01/18 01:36:02;;;;;;;6.40;2.30;;;;;;;0.67;100.00;101267.38;5074399;28;20044;-73
2022/01/18 01:44:20;;;;;;;5.45;2.08;;;;;;;0.68;100.00;101282.28;5077314;28;20045;-70
2022/01/18 01:46:49;;;;;;;6.70;2.05;;;;;;;0.60;100.00;101278.81;5073847;28;20539;-70
2022/01/18 01:49:20;;;;;;;5.00;2.10;;;;;;;0.54;100.00;101293.69;5074019;28;20045;-70
2022/01/18 01:51:49;;;;;;;5.22;2.10;;;;;;;0.48;100.00;101296.34;5074130;28;20044;-71
2022/01/18 01:54:18;;;;;;;6.90;2.30;;;;;;;0.38;100.00;101289.34;5074714;28;20097;-71
2022/01/18 01:56:47;;;;;;;7.50;2.22;;;;;;;0.33;100.00;101300.75;5074735;28;20052;-72
2022/01/18 01:59:15;;;;;;;7.85;2.28;;;;;;;0.36;100.00;101301.59;5074114;28;20090;-72
2022/01/18 02:01:47;;;;;;;8.55;2.20;;;;;;;0.40;100.00;101311.22;5073957;28;20049;-72
2022/01/18 02:04:17;;;;;;;6.68;1.85;;;;;;;0.26;100.00;101320.84;5073826;28;20119;-72
2022/01/18 02:06:45;;;;;;;8.50;2.92;;;;;;;0.25;100.00;101319.13;5073595;28;20036;-72
2022/01/18 02:09:15;;;;;;;9.75;2.15;;;;;;;0.28;100.00;101326.97;5074711;28;20385;-72
2022/01/18 02:11:46;;;;;;;7.70;2.05;;;;;;;0.12;100.00;101331.38;5073714;28;20041;-71
2022/01/18 02:14:19;;;;;;;10.60;2.45;;;;;;;0.38;100.00;101333.09;5073682;28;20086;-71
2022/01/18 02:22:16;;;;;;;7.07;2.10;;;;;;;0.45;100.00;101354.06;5073833;28;20094;-71
2022/01/18 02:24:45;;;;;;;5.70;1.92;;;;;;;0.48;100.00;101348.84;5073317;28;20040;-73
2022/01/18 02:27:14;;;;;;;8.77;1.95;;;;;;;0.45;100.00;101340.94;5073679;28;20098;-76
2022/01/18 02:29:42;;;;;;;9.30;2.65;;;;;;;0.41;100.00;101335.72;5073286;28;20047;-77
2022/01/18 02:32:11;;;;;;;6.05;2.03;;;;;;;0.47;100.00;101341.81;5073803;28;20070;-75
2022/01/18 02:34:39;;;;;;;6.40;2.28;;;;;;;0.34;100.00;101337.47;5073177;28;20041;-74
2022/01/18 02:37:10;;;;;;;8.88;1.90;;;;;;;0.37;100.00;101328.72;5073277;28;20503;-75
2022/01/18 02:39:40;;;;;;;8.00;2.15;;;;;;;0.44;100.00;101347.09;5073483;28;20037;-76
2022/01/18 02:42:10;;;;;;;6.47;2.15;;;;;;;0.34;100.00;101355.84;5072569;28;20098;-76
2022/01/18 02:44:39;;;;;;;7.80;2.30;;;;;;;0.37;100.00;101355.84;5073603;28;20048;-75
2022/01/18 02:47:08;;;;;;;9.27;2.13;;;;;;;0.36;100.00;101346.22;5073360;28;20466;-76
2022/01/18 02:49:36;;;;;;;7.40;2.30;;;;;;;0.38;100.00;101340.97;5073230;28;20044;-75
2022/01/18 02:52:06;;;;;;;7.85;2.20;;;;;;;0.39;100.00;101345.38;5072689;28;20493;-75
2022/01/18 02:54:34;;;;;;;8.13;2.33;;;;;;;0.31;100.00;101363.72;5073229;28;20433;-76
2022/01/18 02:57:04;;;;;;;5.78;2.00;;;;;;;0.31;100.00;101366.34;5072612;28;20064;-72
2022/01/18 02:59:42;;;;;;;5.57;1.80;;;;;;;0.25;100.00;101367.22;5073261;28;20051;-72
2022/01/18 03:05:08;;;;;;;7.50;2.35;;;;;;;0.13;100.00;101384.72;5072596;28;20045;-74
2022/01/18 03:07:37;;;;;;;9.00;2.40;;;;;;;0.14;100.00;101384.72;5073093;28;20045;-74
2022/01/18 03:10:07;;;;;;;8.63;2.60;;;;;;;0.16;100.00;101384.72;5072992;28;20111;-74
2022/01/18 03:12:37;;;;;;;9.60;2.25;;;;;;;0.22;100.00;101392.59;5072838;28;20072;-74
2022/01/18 03:15:07;;;;;;;7.25;2.03;;;;;;;0.13;100.00;101388.22;5072802;28;20425;-74
2022/01/18 03:17:36;;;;;;;7.28;2.33;;;;;;;0.12;100.00;101401.34;5055276;28;20460;-73
2022/01/18 03:20:06;;;;;;;7.72;2.50;;;;;;;0.14;100.00;101400.47;5072412;28;20048;-74
2022/01/18 03:22:34;;;;;;;10.85;1.77;;;;;;;0.18;100.00;101411.81;5073162;28;20075;-74
2022/01/18 03:25:24;;;;;;;5.50;2.00;;;;;;;0.10;100.00;101414.47;5072660;28;20044;-74
2022/01/18 03:28:05;;;;;;;10.70;2.10;;;;;;;0.12;100.00;101422.34;5072366;28;20040;-74
2022/01/18 03:30:34;;;;;;;10.73;2.20;;;;;;;0.11;100.00;101431.06;5072934;28;20049;-73
2022/01/18 03:33:05;;;;;;;8.95;1.90;;;;;;;0.06;100.00;101438.06;5072519;28;20041;-74
2022/01/18 03:35:34;;;;;;;7.32;2.08;;;;;;;0.07;100.00;101426.69;5072534;28;20041;-75
2022/01/18 03:38:03;;;;;;;5.55;2.28;;;;;;;0.13;100.00;101448.56;5072148;28;20045;-75
2022/01/18 03:40:31;;;;;;;8.43;2.28;;;;;;;0.14;100.00;101447.69;5072755;28;20090;-72
2022/01/18 03:43:02;;;;;;;10.18;2.03;;;;;;;-0.01;100.00;101459.00;5072462;28;20044;-74
2022/01/18 03:45:39;;;;;;;12.48;2.30;;;;;;;0.04;100.00;101458.16;5072994;28;20443;-72
2022/01/18 03:48:12;;;;;;;8.90;2.08;;;;;;;0.07;100.00;101463.41;5072343;28;20047;-72
2022/01/18 03:50:43;;;;;;;8.05;2.08;;;;;;;0.01;100.00;101460.78;5072727;28;20396;-73
2022/01/18 03:53:12;;;;;;;9.00;2.38;;;;;;;-0.12;100.00;101460.75;5074739;28;20052;-72
2022/01/18 03:55:40;;;;;;;5.65;2.17;;;;;;;-0.14;100.00;101469.47;5076532;28;20040;-73
2022/01/18 03:58:10;;;;;;;6.72;2.15;;;;;;;-0.07;100.00;101477.38;5076135;28;20477;-72
2022/01/18 04:00:38;;;;;;;10.50;2.55;;;;;;;-0.10;100.00;101479.97;5076437;28;20389;-72
2022/01/18 04:03:07;;;;;;;7.72;2.30;;;;;;;-0.12;100.00;101471.22;5076136;28;20044;-72
2022/01/18 04:05:36;;;;;;;6.20;2.17;;;;;;;-0.14;100.00;101478.22;5075915;28;20047;-71
2022/01/18 04:08:05;;;;;;;10.27;2.03;;;;;;;-0.15;100.00;101473.84;5058054;28;20055;-71
2022/01/18 04:10:34;;;;;;;6.88;2.13;;;;;;;-0.21;100.00;101481.69;5075957;28;20075;-72
2022/01/18 04:13:02;;;;;;;8.57;2.25;;;;;;;-0.16;100.00;101485.22;5075894;28;20401;-72
2022/01/18 04:15:34;;;;;;;7.75;2.22;;;;;;;-0.19;100.00;101479.06;5076180;28;20037;-72
2022/01/18 04:29:06;;;;;;;8.20;2.03;;;;;;;-0.14;100.00;101478.22;5074898;28;20515;-70
2022/01/18 04:31:36;;;;;;;5.97;1.60;;;;;;;-0.22;100.00;101485.19;5076017;28;20048;-70
2022/01/18 04:34:05;;;;;;;10.15;2.10;;;;;;;-0.20;100.00;101495.69;5075588;28;20044;-71
2022/01/18 04:36:33;;;;;;;11.73;2.40;;;;;;;-0.22;100.00;101495.69;5075591;28;20401;-71
2022/01/18 04:39:01;;;;;;;6.07;2.00;;;;;;;-0.22;100.00;101500.03;5075687;28;20451;-73
2022/01/18 04:41:31;;;;;;;7.10;1.75;;;;;;;-0.25;100.00;101503.53;5075780;28;20048;-73
2022/01/18 04:48:24;;;;;;;6.90;2.08;;;;;;;-0.27;100.00;101502.66;5075424;28;20051;-72
2022/01/18 04:49:52;;;;;;;6.55;2.65;;;;;;;-0.29;100.00;101514.88;5075175;28;20041;-72
2022/01/18 04:52:20;;;;;;;5.63;1.95;;;;;;;-0.29;100.00;101504.38;5075713;28;20044;-71
2022/01/18 04:54:58;;;;;;;8.05;2.15;;;;;;;-0.27;100.00;101510.53;5075582;28;20048;-71
2022/01/18 05:00:12;;;;;;;4.95;1.63;;;;;;;-0.25;100.00;101518.41;5074920;28;20045;-69
2022/01/18 05:02:42;;;;;;;6.30;2.25;;;;;;;-0.36;100.00;101519.22;5075418;28;20041;-70
2022/01/18 05:05:22;;;;;;;11.82;2.60;;;;;;;-0.30;100.00;101521.84;5074604;28;20130;-70
2022/01/18 05:07:52;;;;;;;6.72;2.35;;;;;;;-0.27;100.00;101533.25;5075014;28;20063;-74
2022/01/18 05:10:22;;;;;;;7.97;2.10;;;;;;;-0.28;100.00;101527.13;5075295;28;20392;-71
2022/01/18 05:12:53;;;;;;;4.78;1.60;;;;;;;-0.24;100.00;101521.03;5057050;28;20131;-76
2022/01/18 05:15:38;;;;;;;8.15;2.40;;;;;;;-0.26;100.00;101527.13;5074858;28;20045;-72
2022/01/18 05:21:10;;;;;;;5.47;2.35;;;;;;;-0.21;100.00;101515.78;5074870;28;20106;-77
2022/01/18 05:23:38;;;;;;;5.93;1.73;;;;;;;-0.27;100.00;101528.00;5075027;28;20041;-74
2022/01/18 05:26:09;;;;;;;8.77;2.20;;;;;;;-0.30;100.00;101518.38;5074582;28;20049;-75
2022/01/18 05:28:37;;;;;;;3.70;1.80;;;;;;;-0.26;100.00;101545.50;5074473;28;20059;-75
2022/01/18 05:31:05;;;;;;;11.52;2.45;;;;;;;-0.28;100.00;101539.38;5056782;28;20405;-71
2022/01/18 05:33:35;;;;;;;9.57;2.55;;;;;;;-0.32;100.00;101541.09;5074549;28;20067;-72
2022/01/18 05:36:03;;;;;;;8.60;2.58;;;;;;;-0.30;100.00;101548.09;5074521;28;20041;-72
2022/01/18 05:38:33;;;;;;;8.65;2.38;;;;;;;-0.35;100.00;101555.06;5034694;28;20045;-72
2022/01/18 05:41:01;;;;;;;8.80;2.60;;;;;;;-0.36;100.00;101565.56;5034086;28;20124;-71
2022/01/18 05:43:29;;;;;;;10.30;2.15;;;;;;;-0.36;100.00;101563.81;5034595;28;20087;-71
2022/01/18 05:45:58;;;;;;;7.80;2.50;;;;;;;-0.32;100.00;101557.69;5034288;28;20048;-72
2022/01/18 05:48:26;;;;;;;7.18;2.83;;;;;;;-0.37;100.00;101562.06;5034137;28;20046;-72
2022/01/18 05:50:59;;;;;;;8.30;2.28;;;;;;;-0.37;100.00;101582.16;5033934;28;20049;-72
2022/01/18 05:53:28;;;;;;;8.02;2.55;;;;;;;-0.36;100.00;101581.28;5034747;28;20486;-71
2022/01/18 05:55:56;;;;;;;9.10;3.00;;;;;;;-0.36;100.00;101581.28;5033098;28;20490;-71
2022/01/18 05:58:24;;;;;;;5.95;2.20;;;;;;;-0.40;100.00;101574.25;5034612;28;20129;-71
2022/01/18 06:00:54;;;;;;;7.03;2.15;;;;;;;-0.36;100.00;101574.28;5033091;28;20375;-76
2022/01/18 06:03:31;;;;;;;7.70;2.58;;;;;;;-0.39;100.00;101574.25;5033976;28;20076;-72
2022/01/18 06:08:48;;;;;;;9.07;2.03;;;;;;;-0.41;100.00;101598.72;5034123;28;20045;-73
2022/01/18 06:11:17;;;;;;;8.05;2.85;;;;;;;-0.41;100.00;101589.09;5033803;28;20041;-72
2022/01/18 06:13:45;;;;;;;10.05;2.80;;;;;;;-0.48;100.00;101582.09;5033963;28;20116;-73
2022/01/18 06:16:13;;;;;;;6.72;1.75;;;;;;;-0.48;100.00;101586.44;5033404;28;20068;-71
2022/01/18 06:18:42;;;;;;;8.77;2.47;;;;;;;-0.43;100.00;101589.97;5034044;28;20462;-71
2022/01/18 06:21:12;;;;;;;9.70;2.40;;;;;;;-0.43;100.00;101582.09;5033720;28;20057;-71
2022/01/18 06:23:40;;;;;;;10.25;2.35;;;;;;;-0.46;100.00;101559.38;5033543;28;20049;-71
2022/01/18 06:26:14;;;;;;;9.13;2.80;;;;;;;-0.47;100.00;101564.63;5033154;28;20048;-72
2022/01/18 06:28:42;;;;;;;6.60;2.47;;;;;;;-0.44;100.00;101551.50;5033884;28;20038;-72
2022/01/18 06:31:16;;;;;;;9.65;3.03;;;;;;;-0.46;100.00;101569.00;5033134;28;20361;-73
2022/01/18 06:33:45;;;;;;;11.48;2.92;;;;;;;-0.47;100.00;101575.09;5033587;28;20080;-72
2022/01/18 06:36:14;;;;;;;10.88;2.80;;;;;;;-0.39;100.00;101576.88;5035294;28;20041;-72
2022/01/18 06:38:44;;;;;;;8.25;2.22;;;;;;;-0.33;100.00;101576.03;5073303;28;20551;-74
2022/01/18 06:41:12;;;;;;;5.28;2.10;;;;;;;-0.29;100.00;101577.78;5072851;28;20544;-74
2022/01/18 06:43:41;;;;;;;8.75;2.63;;;;;;;-0.25;100.00;101584.84;5055520;28;20068;-74
2022/01/18 06:46:09;;;;;;;6.82;2.10;;;;;;;-0.28;100.00;101595.31;5073310;28;20496;-73
2022/01/18 06:48:37;;;;;;;8.40;2.33;;;;;;;-0.22;100.00;101592.69;5073194;28;20049;-73
2022/01/18 06:51:05;;;;;;;11.27;3.08;;;;;;;-0.27;100.00;101594.44;5072891;28;20386;-74
2022/01/18 06:53:43;;;;;;;8.93;3.00;;;;;;;-0.25;100.00;101594.44;5073630;28;20492;-73
2022/01/18 06:56:12;;;;;;;8.70;2.95;;;;;;;-0.22;100.00;101590.09;5055447;28;20060;-70
2022/01/18 06:58:40;;;;;;;8.13;3.20;;;;;;;-0.24;100.00;101588.31;5073822;28;20040;-71
2022/01/18 07:01:10;;;;;;;9.23;2.88;;;;;;;-0.17;100.00;101593.63;5074125;28;20377;-71
2022/01/18 07:03:39;;;;;;;7.88;2.63;;;;;;;-0.14;100.00;101593.63;5074284;28;20040;-73
2022/01/18 07:06:08;;;;;;;11.27;3.05;;;;;;;-0.22;100.00;101584.84;5075373;28;20048;-70
2022/01/18 07:08:39;;;;;;;10.02;2.90;;;;;;;-0.09;100.00;101591.91;5077517;28;20044;-71
2022/01/18 07:11:08;;;;;;;10.75;2.70;;;;;;;-0.10;100.00;101589.25;5072969;28;20068;-70
2022/01/18 07:13:36;;;;;;;9.35;2.92;;;;;;;-0.09;100.00;101584.03;5073099;28;20039;-70
2022/01/18 07:16:06;;;;;;;13.30;3.03;;;;;;;-0.05;100.00;101591.03;5073025;28;20051;-70
2022/01/18 07:18:35;;;;;;;8.40;2.25;;;;;;;-0.03;100.00;101585.81;5073447;28;20048;-70
2022/01/18 07:21:09;;;;;;;11.05;2.90;;;;;;;-0.03;100.00;101573.56;5072923;28;20098;-71
2022/01/18 07:23:39;;;;;;;7.50;2.70;;;;;;;0.07;100.00;101589.34;5072700;28;20058;-71
2022/01/18 07:26:10;;;;;;;6.10;2.45;;;;;;;0.09;100.00;101577.09;5072937;28;20082;-71
2022/01/18 07:28:38;;;;;;;7.63;2.83;;;;;;;0.12;100.00;101585.00;5075579;28;20059;-71
2022/01/18 07:31:10;;;;;;;11.52;3.50;;;;;;;0.16;100.00;101571.00;5076981;28;20067;-72
2022/01/18 07:33:39;;;;;;;10.90;3.03;;;;;;;0.16;100.00;101590.25;5076825;28;20048;-70
2022/01/18 07:36:08;;;;;;;7.35;2.70;;;;;;;0.24;100.00;101571.91;5076648;28;20451;-72
2022/01/18 07:38:36;;;;;;;9.52;3.33;;;;;;;0.22;100.00;101581.53;5076647;28;20123;-73
2022/01/18 07:41:06;;;;;;;4.90;1.90;;;;;;;0.25;100.00;101589.41;5076692;28;20072;-72
2022/01/18 07:43:37;;;;;;;10.90;2.70;;;;;;;0.29;100.00;101599.06;5076542;28;20041;-72
2022/01/18 07:46:06;;;;;;;7.53;2.97;;;;;;;0.33;100.00;101613.94;5076309;28;20047;-74
2022/01/18 07:48:35;;;;;;;11.38;2.78;;;;;;;0.32;100.00;101606.06;5076712;28;20049;-73
2022/01/18 07:51:03;;;;;;;6.50;3.03;;;;;;;0.38;100.00;101606.94;5076287;28;20045;-75
2022/01/18 07:53:31;;;;;;;8.20;2.40;;;;;;;0.42;100.00;101613.97;5076681;28;20392;-73
2022/01/18 07:55:59;;;;;;;12.52;2.83;;;;;;;0.51;100.00;101623.63;5076272;28;20048;-72
2022/01/18 07:58:29;;;;;;;9.05;2.65;;;;;;;0.50;100.00;101635.00;5075992;28;20044;-72
2022/01/18 08:01:00;;;;;;;9.23;2.97;;;;;;;0.55;100.00;101641.13;5076385;28;20079;-73
2022/01/18 08:03:29;;;;;;;5.97;2.08;;;;;;;0.64;100.00;101642.91;5076040;28;20075;-73
2022/01/18 08:05:58;;;;;;;9.48;2.30;;;;;;;0.65;100.00;101649.91;5076219;28;20409;-73
2022/01/18 08:08:26;;;;;;;9.75;3.22;;;;;;;0.60;100.00;101641.16;5075883;28;20048;-72
2022/01/18 08:10:57;;;;;;;12.38;2.78;;;;;;;0.66;100.00;101649.03;5076190;28;20069;-73
2022/01/18 08:13:29;;;;;;;9.93;3.20;;;;;;;0.67;100.00;101659.53;5076129;28;20044;-73
2022/01/18 08:16:21;;;;;;;10.07;2.97;;;;;;;0.70;100.00;101664.81;5076026;28;20044;-73
2022/01/18 08:18:50;;;;;;;8.07;2.65;;;;;;;0.70;100.00;101679.69;5075974;28;20076;-73
2022/01/18 08:21:19;;;;;;;11.05;3.10;;;;;;;0.70;100.00;101669.19;5075549;28;20040;-72
2022/01/18 08:23:48;;;;;;;8.20;3.28;;;;;;;0.72;100.00;101678.81;5076065;28;20072;-73
2022/01/18 08:26:16;;;;;;;11.80;3.20;;;;;;;0.73;100.00;101674.44;5075761;28;20389;-72
2022/01/18 08:28:45;;;;;;;9.20;2.67;;;;;;;0.74;100.00;101689.31;5075949;28;20047;-72
2022/01/18 08:31:15;;;;;;;13.15;3.55;;;;;;;0.71;100.00;101691.97;5075738;28;20461;-73
2022/01/18 08:33:43;;;;;;;9.57;3.53;;;;;;;0.72;100.00;101702.47;5075850;28;20055;-72
2022/01/18 08:36:11;;;;;;;9.43;3.25;;;;;;;0.76;100.00;101695.47;5075417;28;20374;-73
2022/01/18 08:38:41;;;;;;;6.80;2.80;;;;;;;0.79;100.00;101696.38;5075492;28;20098;-72
2022/01/18 08:41:09;;;;;;;12.35;3.03;;;;;;;0.81;100.00;101693.72;5074820;28;20052;-73
2022/01/18 08:43:38;;;;;;;10.93;3.10;;;;;;;0.78;100.00;101699.88;5075656;28;20072;-72
2022/01/18 08:46:06;;;;;;;14.18;3.28;;;;;;;0.83;100.00;101692.84;5075446;28;20048;-73
2022/01/18 08:48:36;;;;;;;8.82;2.75;;;;;;;0.95;100.00;101715.66;5075527;28;20043;-73
2022/01/18 08:51:05;;;;;;;16.13;4.07;;;;;;;0.99;100.00;101706.91;5075599;28;20047;-72
2022/01/18 08:53:33;;;;;;;10.80;3.35;;;;;;;1.01;100.00;101713.03;5075587;28;20123;-73
2022/01/18 08:56:02;;;;;;;5.32;2.15;;;;;;;1.11;100.00;101719.19;5075187;28;20044;-73
2022/01/18 08:58:31;;;;;;;11.80;3.10;;;;;;;1.06;100.00;101721.84;5075252;28;20041;-72
2022/01/18 09:01:00;;;;;;;11.88;3.30;;;;;;;1.10;100.00;101713.06;5075488;28;20054;-73
2022/01/18 09:03:29;;;;;;;9.15;2.78;;;;;;;1.09;100.00;101708.69;5075118;28;20047;-74
2022/01/18 09:05:58;;;;;;;7.00;2.70;;;;;;;1.13;100.00;101725.34;5074841;28;20044;-72
2022/01/18 09:08:27;;;;;;;11.35;3.05;;;;;;;1.17;100.00;101723.59;5074728;28;20102;-73
2022/01/18 09:10:55;;;;;;;11.65;3.55;;;;;;;1.21;100.00;101731.47;5074773;28;20443;-73
2022/01/18 09:13:24;;;;;;;11.57;3.30;;;;;;;1.25;100.00;101733.22;5074723;28;20078;-72
2022/01/18 09:15:53;;;;;;;7.85;3.38;;;;;;;1.32;100.00;101756.03;5075112;28;20123;-72
2022/01/18 09:18:21;;;;;;;8.45;3.22;;;;;;;1.34;100.00;101756.91;5074883;28;20489;-72
2022/01/18 09:20:49;;;;;;;13.77;3.97;;;;;;;1.34;100.00;101753.41;5074862;28;20071;-73
2022/01/18 09:23:19;;;;;;;6.95;2.50;;;;;;;1.36;100.00;101749.03;5074740;28;20075;-73
2022/01/18 09:25:48;;;;;;;8.65;2.67;;;;;;;1.39;100.00;101747.28;5075439;28;20106;-73
2022/01/18 09:28:17;;;;;;;12.05;3.42;;;;;;;1.46;100.00;101752.56;5074434;28;20401;-73
2022/01/18 09:30:46;;;;;;;12.57;3.33;;;;;;;1.39;100.00;101746.41;5074800;28;20048;-73
2022/01/18 09:33:14;;;;;;;12.95;3.70;;;;;;;1.47;100.00;101759.56;5074572;28;20389;-74
2022/01/18 09:35:42;;;;;;;11.15;3.40;;;;;;;1.48;100.00;101777.97;5074450;28;20045;-73
2022/01/18 09:38:15;;;;;;;6.18;3.05;;;;;;;1.47;100.00;101792.00;5074655;28;20102;-73
2022/01/18 09:40:46;;;;;;;12.02;3.30;;;;;;;1.47;100.00;101770.97;5074363;28;20040;-73
2022/01/18 09:43:16;;;;;;;9.93;3.45;;;;;;;1.65;100.00;101771.00;5074346;28;20057;-72
2022/01/18 09:45:46;;;;;;;4.80;1.85;;;;;;;1.68;100.00;101776.25;5074630;28;20068;-72
2022/01/18 09:48:15;;;;;;;9.98;2.90;;;;;;;1.62;100.00;101773.59;5074263;28;20447;-74
2022/01/18 09:50:50;;;;;;;4.15;2.15;;;;;;;1.64;100.00;101777.13;5073932;28;20044;-73
2022/01/18 09:53:19;;;;;;;10.07;3.30;;;;;;;1.80;100.00;101779.75;5074241;28;20071;-73
2022/01/18 09:55:50;;;;;;;10.77;3.63;;;;;;;1.83;100.00;101749.03;5074057;28;20036;-73
2022/01/18 09:58:18;;;;;;;16.30;2.53;;;;;;;1.81;100.00;101744.66;5073985;28;20047;-73
2022/01/18 10:00:48;;;;;;;11.57;3.38;;;;;;;1.85;100.00;101754.31;5074184;28;20041;-73
2022/01/18 10:03:29;;;;;;;10.98;2.97;;;;;;;1.83;100.00;101743.78;5074026;28;20068;-73
2022/01/18 10:05:58;;;;;;;15.05;4.03;;;;;;;1.95;100.00;101750.81;5074380;28;20063;-73
2022/01/18 10:08:27;;;;;;;11.75;3.72;;;;;;;1.95;100.00;101742.91;5073864;28;20051;-72
2022/01/18 10:10:58;;;;;;;11.05;3.05;;;;;;;2.08;100.00;101752.53;5073972;28;20389;-73
2022/01/18 10:13:28;;;;;;;9.57;3.08;;;;;;;2.06;100.00;101751.66;5073603;28;20481;-73
2022/01/18 10:16:08;;;;;;;11.15;2.85;;;;;;;2.00;100.00;101738.50;5073710;28;20041;-73
2022/01/18 10:18:44;;;;;;;12.02;3.53;;;;;;;2.07;100.00;101739.38;5073773;28;20094;-72
2022/01/18 10:21:15;;;;;;;8.45;3.15;;;;;;;2.14;100.00;101727.97;5074060;28;20433;-73
2022/01/18 10:23:49;;;;;;;13.43;3.45;;;;;;;2.16;100.00;101732.34;5073882;28;20040;-72
2022/01/18 10:26:23;;;;;;;10.25;2.80;;;;;;;2.13;100.00;101735.00;5073348;28;20052;-73
2022/01/18 10:29:01;;;;;;;5.40;2.97;;;;;;;2.12;100.00;101756.03;5073902;28;20448;-73
2022/01/18 10:31:38;;;;;;;10.45;3.33;;;;;;;2.24;100.00;101734.97;5073167;28;20098;-73
2022/01/18 10:34:24;;;;;;;9.55;3.40;;;;;;;2.33;100.00;101741.97;5073579;28;20495;-73
2022/01/18 10:36:56;;;;;;;16.65;3.40;;;;;;;2.36;100.00;101748.09;5073304;28;20049;-74
2022/01/18 10:39:25;;;;;;;9.10;2.42;;;;;;;2.36;100.00;101744.59;5073561;28;20119;-73
2022/01/18 10:41:57;;;;;;;11.55;3.83;;;;;;;2.40;100.00;101748.94;5073605;28;20132;-73
2022/01/18 10:44:25;;;;;;;7.30;2.60;;;;;;;2.26;100.00;101755.13;5073002;28;20059;-73
2022/01/18 10:46:56;;;;;;;9.65;3.33;;;;;;;2.25;100.00;101753.38;5073561;28;20044;-73
2022/01/18 10:49:36;;;;;;;9.48;3.17;;;;;;;2.32;100.00;101745.44;5072987;28;20045;-73
2022/01/18 10:52:07;;;;;;;9.57;3.55;;;;;;;2.37;100.00;101752.47;5073444;28;20124;-73
2022/01/18 10:54:38;;;;;;;10.02;2.97;;;;;;;2.45;100.00;101749.81;5072950;28;20154;-73
2022/01/18 10:57:11;;;;;;;10.55;3.63;;;;;;;2.45;100.00;101741.94;5073575;28;20163;-73
2022/01/18 10:59:41;;;;;;;11.30;3.05;;;;;;;2.42;100.00;101744.56;5073189;28;20123;-73
2022/01/18 11:02:13;;;;;;;9.90;2.88;;;;;;;2.52;100.00;101743.66;5072710;28;20072;-73
2022/01/18 11:04:45;;;;;;;12.70;3.97;;;;;;;2.49;100.00;101747.16;5073049;28;20058;-73
2022/01/18 11:07:16;;;;;;;7.72;2.45;;;;;;;2.51;100.00;101740.16;5073144;28;20120;-73
2022/01/18 11:09:46;;;;;;;11.15;2.20;;;;;;;2.54;100.00;101732.22;5073175;28;20534;-73
2022/01/18 11:12:16;;;;;;;11.65;3.50;;;;;;;2.52;100.00;101748.94;5073039;28;20036;-74
2022/01/18 11:14:47;;;;;;;8.95;3.10;;;;;;;2.63;100.00;101765.56;5073372;28;20470;-74
2022/01/18 11:17:22;;;;;;;9.15;2.05;;;;;;;2.64;100.00;101751.50;5073160;28;20040;-73
2022/01/18 11:19:55;;;;;;;5.53;2.25;;;;;;;2.68;100.00;101776.06;5073105;28;20045;-73
2022/01/18 11:22:25;;;;;;;8.27;2.75;;;;;;;2.60;100.00;101762.94;5073050;28;20072;-73
2022/01/18 11:25:00;;;;;;;11.85;3.08;;;;;;;2.61;100.00;101755.94;5073135;28;20044;-74
2022/01/18 11:27:30;;;;;;;9.43;3.40;;;;;;;2.63;100.00;101754.16;5072901;28;20090;-73
2022/01/18 11:29:59;;;;;;;10.18;3.05;;;;;;;2.64;100.00;101762.06;5073471;28;20047;-73
2022/01/18 11:32:29;;;;;;;4.05;2.40;;;;;;;2.66;100.00;101759.41;5072313;28;20048;-72
2022/01/18 11:35:09;;;;;;;9.88;2.70;;;;;;;2.76;100.00;101759.38;5072693;28;20043;-73
2022/01/18 11:37:45;;;;;;;11.73;3.42;;;;;;;2.74;100.00;101774.31;5072880;28;20056;-73
2022/01/18 11:40:15;;;;;;;9.18;2.65;;;;;;;2.74;100.00;101761.13;5073154;28;20047;-73
2022/01/18 11:42:51;;;;;;;14.45;3.92;;;;;;;2.71;100.00;101763.78;5054575;28;20159;-73
2022/01/18 11:45:35;;;;;;;8.60;3.10;;;;;;;2.78;100.00;101776.03;5072948;28;20044;-72
2022/01/18 11:48:07;;;;;;;9.73;2.75;;;;;;;2.83;100.00;101769.00;5072686;28;20139;-74
2022/01/18 11:50:38;;;;;;;9.38;2.78;;;;;;;2.86;100.00;101761.06;5072666;28;20098;-73
2022/01/18 11:53:17;;;;;;;11.50;3.38;;;;;;;2.86;100.00;101773.38;5072901;28;20043;-73
2022/01/18 11:55:46;;;;;;;9.25;3.10;;;;;;;2.84;100.00;101770.75;5072309;28;20041;-74
2022/01/18 11:58:16;;;;;;;11.50;3.17;;;;;;;2.84;100.00;101761.97;5072568;28;20068;-73
2022/01/18 12:00:51;;;;;;;9.80;3.42;;;;;;;2.77;100.00;101761.09;5072159;28;20059;-73
2022/01/18 12:03:23;;;;;;;7.35;2.65;;;;;;;2.69;100.00;101765.53;5072402;28;20046;-73
2022/01/18 12:05:51;;;;;;;9.98;3.05;;;;;;;2.74;100.00;101736.53;5075978;28;20171;-73
2022/01/18 12:08:39;;;;;;;10.57;2.90;;;;;;;2.79;100.00;101769.00;5072649;28;20464;-73
2022/01/18 12:11:10;;;;;;;11.38;3.47;;;;;;;2.81;100.00;101754.97;5074440;28;20048;-73
2022/01/18 12:13:46;;;;;;;7.85;3.10;;;;;;;2.91;100.00;101760.19;5073026;28;20052;-74
2022/01/18 12:16:25;;;;;;;11.82;3.33;;;;;;;2.93;100.00;101763.69;5076473;28;20075;-73
2022/01/18 12:19:04;;;;;;;10.02;2.58;;;;;;;2.95;100.00;101775.09;5078025;28;20040;-74
2022/01/18 12:21:35;;;;;;;8.90;3.17;;;;;;;2.92;100.00;101761.94;5075792;28;20448;-72
2022/01/18 12:24:18;;;;;;;10.77;2.85;;;;;;;2.97;100.00;101763.66;5076518;28;20055;-73
2022/01/18 12:26:49;;;;;;;;;;;;;;;2.99;100.00;101750.47;5076302;28;20132;-73
2022/01/18 12:35:18;;;;;;;10.05;3.40;;;;;;;3.03;100.00;101787.38;5076275;28;20051;-73
2022/01/18 12:37:48;;;;;;;10.07;2.78;;;;;;;3.03;100.00;101781.22;5075845;28;20457;-73